Strumenti personali
Tu sei qui: Portale Dati rete

Dati disponibili

Clicca sulla provincia, potrai visualizzare le stazioni presenti nel suo territorio

Belluno, Padova, Rovigo, Treviso, Venezia, Verona, Vicenza

 

 

Provincia di BellunoProvincia di VicenzaProvincia di TrevisoProvincia di VeneziaProvincia di PadovaProvincia di VeronaProvincia di Rovigo

Dipartimento Regionale per la Sicurezza del Territorio

Servizio Centro Meteorologico di Teolo

Stazione Santo Stefano di Cadore
Provincia BELLUNO

Valori giornalieri nel periodo 17/02/2014 - 17/04/2014

La tabella è stata elaborata con i dati trasmessi in automatico dalle centraline, dopo la validazione possono subire parziali modifiche.
Data (gg/mm/aa) Temp. aria
a 2m
(°C)
Pioggia
(mm)
Umidità rel.
a 2m
(%)
Radiazione globale
(MJ/m2)
Vento a 5 m
  med     min     max   tot min max tot Sfilato (km/g) Raffica Direz. preval
ora m/s
17/02/14 1.6 0.8 3.8 16.0 92 100 3.000 >> >> >> S
18/02/14 1.5 0.0 6.1 0.0 75 100 8.272 >> >> >> SE
19/02/14 0.9 0.2 2.5 34.6 100 100 1.638 >> >> >> SSE
20/02/14 1.5 0.2 4.5 6.0 91 100 4.349 >> >> >> S
21/02/14 1.5 -0.9 5.6 0.0 81 100 8.799 25.2 08:45 1.8 E
22/02/14 0.6 -2.0 3.5 25.8 87 100 0.966 17.8 15:15 2.7 E
23/02/14 -2.0 -6.2 4.7 0.0 74 100 11.140 >> >> >> >>
24/02/14 -2.1 -7.1 5.3 0.0 70 100 12.313 >> 16:37 2.2 >>
25/02/14 -1.4 -6.9 5.5 0.0 67 100 12.972 13.9 14:08 1.7 >>
26/02/14 1.6 -0.2 5.5 0.2 76 100 6.175 15.3 14:18 2.1 S
27/02/14 2.3 0.4 7.8 2.6 51 100 11.221 46.4 13:48 5.3 S
28/02/14 1.0 -1.4 4.9 0.0 64 100 7.299 31.9 13:53 3.9 E
01/03/14 0.5 -1.1 3.5 21.4 76 100 3.514 20.8 11:45 4.6 >>
02/03/14 1.4 0.1 5.3 7.6 88 100 3.696 15.8 22:01 2.0 E
03/03/14 1.4 -0.5 4.7 0.0 76 100 9.257 34.5 08:04 2.3 E
04/03/14 2.0 -0.3 6.6 0.2 49 100 7.763 34.6 13:31 4.5 E
05/03/14 1.3 -2.9 8.6 0.0 35 100 9.175 44.8 14:38 7.7 ENE
06/03/14 1.0 -4.1 10.4 0.0 33 100 12.313 37.3 13:13 7.0 ENE
07/03/14 1.1 -4.5 10.4 0.0 48 100 16.895 15.4 16:07 2.1 SE
08/03/14 1.9 -3.5 12.9 0.0 16 100 17.384 49.0 12:43 8.9 E
09/03/14 0.5 -5.6 10.5 0.0 43 100 17.591 11.5 16:21 1.7 SE
10/03/14 1.0 -5.0 11.0 0.0 24 100 14.911 42.7 12:07 5.9 E
11/03/14 1.4 -4.3 10.8 0.0 38 100 17.466 18.0 16:56 2.5 E
12/03/14 1.4 -4.7 11.0 0.0 42 100 18.382 11.2 16:59 1.8 ESE
13/03/14 1.9 -3.9 11.6 0.0 45 100 18.300 12.2 16:30 2.2 SE
14/03/14 2.3 -3.5 10.8 0.0 48 100 18.539 9.8 16:43 1.9 ESE
15/03/14 2.8 -2.4 11.9 0.0 45 100 12.753 36.6 13:29 4.1 ESE
16/03/14 5.5 -1.4 17.4 0.0 26 100 14.855 97.1 14:45 9.5 S
17/03/14 4.2 -2.0 18.1 0.0 18 100 19.499 40.3 13:56 6.0 SO
18/03/14 3.4 -2.8 11.6 0.0 44 100 18.395 14.5 12:51 1.5 SE
19/03/14 4.8 -1.0 15.7 0.0 18 100 19.813 48.1 10:42 7.1 SSO
20/03/14 3.7 -2.5 14.7 0.0 36 100 19.085 18.2 13:09 3.2 SE
21/03/14 4.6 -1.9 15.1 0.0 38 100 17.428 37.7 14:37 6.2 ESE
22/03/14 3.7 0.7 9.1 3.4 69 100 6.383 23.3 12:02 2.0 E
23/03/14 1.6 0.2 3.3 39.6 99 100 2.918 27.5 15:24 3.4 SE
24/03/14 0.8 -2.9 5.1 13.0 71 100 10.895 >> 11:55 3.1 E
25/03/14 0.0 -4.8 4.7 0.0 47 100 14.642 40.4 13:58 5.6 >>
26/03/14 1.0 -4.0 6.0 0.0 43 100 11.366 45.8 14:49 5.8 SE
27/03/14 2.8 -0.4 8.3 0.0 50 100 8.466 33.7 12:42 4.8 S
28/03/14 3.4 -2.5 11.9 0.0 38 100 17.177 39.2 11:46 4.5 E
29/03/14 3.9 -3.2 15.0 0.0 28 100 22.035 29.2 17:41 3.4 SE
30/03/14 4.5 -2.6 16.6 0.0 29 100 21.225 22.9 12:40 2.9 SE
31/03/14 4.8 -1.7 14.9 0.0 34 100 19.625 14.6 13:55 1.5 SE
01/04/14 5.9 -0.9 17.7 0.0 36 100 19.863 24.2 15:05 4.5 SE
02/04/14 6.4 2.4 15.2 0.0 41 100 13.531 19.9 14:07 3.5 S
03/04/14 5.2 1.7 10.5 0.0 67 100 8.278 12.7 08:16 1.9 ESE
04/04/14 6.6 1.1 17.3 0.0 31 100 16.744 29.5 13:38 4.0 SSE
05/04/14 7.1 3.0 16.4 0.4 38 100 12.803 22.8 13:07 2.7 SE
06/04/14 7.3 1.3 16.9 0.0 38 100 14.541 34.4 13:04 5.2 E
07/04/14 7.9 -0.1 19.6 0.0 23 100 23.240 42.5 16:49 4.0 SE
08/04/14 7.9 1.3 18.0 7.2 45 100 14.937 48.7 >> >> S
09/04/14 5.9 -0.4 13.0 0.2 18 100 22.379 81.3 11:06 8.0 E
10/04/14 6.9 -2.0 16.5 0.0 20 97 24.413 99.8 15:14 11.4 SE
11/04/14 8.0 2.0 15.6 0.0 40 98 18.062 62.5 13:57 7.4 S
12/04/14 7.6 5.0 13.2 4.0 57 100 12.037 86.6 11:54 8.2 E
13/04/14 7.2 1.2 15.1 1.4 40 100 11.479 55.1 16:16 5.7 SE
14/04/14 7.7 -0.7 17.7 0.0 30 100 23.051 119.5 16:01 10.9 ESE
15/04/14 4.9 -1.3 10.3 0.0 19 80 24.758 117.4 02:21 10.7 S
16/04/14 3.2 -3.1 10.3 0.0 19 85 24.790 102.5 16:56 9.4 ENE
17/04/14 5.2 -3.3 15.1 0.0 11 85 26.817 78.5 15:06 6.3 E
Se la casella è vuota il sensore non è attivo.
Se la casella contiene ">>" il valore non è disponibile.
Si segnala che con precipitazione nevosa il pluviometro potrebbe non rilevare o sottostimare il fenomeno.
L'orario indicato nella raffica è solare.
La direzione prevalente del vento è in settori e rappresenta la provenienza del vento, il settore è ampio 22.5 gradi con asse nella direzione indicata.

Oltre alla gestione operativa delle stazioni, che comprende le operazioni di acquisizione, validazione e archiviazione dati, tale settore si occupa della predisposizione di una serie di prodotti e servizi, finalizzati all'utenza esterna, rappresentati dai dati e servizi di tipo standard il cui costo è gia quantificato (listino prodotti tariffati) o prodotti e servizi particolari, legati a specifiche esigenze dell'utenza, il cui prezzo viene determinato di volta in volta al momento della richiesta dati.

Azioni sul documento

ultima modifica 01/07/2011 15:07